Terminal Aerodrome Forecast
Issued by NWS Charleston, WV

Current Version | Previous Version | Graphics & Text | Print | Product List | Glossary On
Versions: 1 2 3 4 5 6 7 8 9 10 11 12 13 14 15 16 17 18 19 20 21 22 23 24 25
000
FTUS41 KRLX 221700
TAFEKN
TAF
KEKN 221724Z 2218/2318 VRB04KT P6SM SCT045
     FM222000 VRB03KT P6SM VCTS SCT045CB
     FM222300 19004KT P6SM SCT050
     FM230600 19004KT 5SM BR FEW050
     FM230800 21004KT 2SM BR SCT001
     FM231000 VRB03KT 1/4SM FG BKN001
     FM231200 VRB03KT 3SM BR SCT001
     FM231300 23004KT 6SM BR SCT040
     FM231400 24005KT P6SM SCT040
     FM231700 27009KT P6SM VCTS SCT035CB=

USA.gov is the U.S. government's official web portal to all federal, state and local government web resources and services.